createdAt,value
2018-07-04T00:00:02.459Z,16.3
2018-07-04T00:15:02.864Z,16.2
2018-07-04T00:30:03.310Z,16.2
2018-07-04T00:45:02.632Z,15.9
2018-07-04T01:00:02.976Z,15.9
2018-07-04T01:15:02.273Z,15.6
2018-07-04T01:30:02.698Z,15.5
2018-07-04T01:45:03.039Z,15.4
2018-07-04T02:00:02.374Z,15.4
2018-07-04T02:15:02.701Z,15.2
2018-07-04T02:30:03.079Z,15
2018-07-04T02:45:02.918Z,14.8
2018-07-04T03:00:03.276Z,14.7
2018-07-04T03:15:02.624Z,14.7
2018-07-04T03:30:03.075Z,14.7
2018-07-04T03:45:02.401Z,14.7
2018-07-04T04:00:02.685Z,14.8
2018-07-04T04:15:02.980Z,15
2018-07-04T04:30:02.399Z,15.2
2018-07-04T04:45:02.682Z,15.2
2018-07-04T05:00:03.076Z,15.2
2018-07-04T05:15:02.365Z,15.6
2018-07-04T05:30:02.766Z,15.8
2018-07-04T05:45:03.075Z,16.1
2018-07-04T06:00:02.390Z,16.4
2018-07-04T06:15:02.782Z,17
2018-07-04T06:30:02.272Z,17.7
2018-07-04T06:45:02.579Z,18.3
2018-07-04T07:00:02.870Z,18.8
2018-07-04T07:15:03.240Z,19.5
2018-07-04T07:30:02.645Z,19.9
2018-07-04T07:45:02.968Z,20.6
2018-07-04T08:00:02.271Z,22.9
2018-07-04T08:15:02.584Z,23.8
2018-07-04T08:30:03.000Z,24.1
2018-07-04T08:45:02.626Z,25.1
2018-07-04T09:00:03.048Z,26.5
2018-07-04T09:15:02.485Z,27.6
2018-07-04T09:30:03.046Z,27.8
2018-07-04T09:45:02.491Z,28.4
2018-07-04T10:00:02.780Z,29.5
2018-07-04T10:15:03.232Z,29.8
2018-07-04T10:30:02.680Z,30.4
2018-07-04T10:45:02.959Z,29.4
2018-07-04T11:00:02.275Z,29
2018-07-04T11:15:02.572Z,29.2
2018-07-04T11:30:02.956Z,29
2018-07-04T11:45:02.269Z,28.1
2018-07-04T12:00:02.595Z,27.2
2018-07-04T12:15:02.876Z,27.1
2018-07-04T12:30:02.296Z,26.2
2018-07-04T12:45:02.584Z,26.1
2018-07-04T13:00:02.885Z,27.9
2018-07-04T13:15:03.235Z,27.4
2018-07-04T13:30:02.659Z,27.5
2018-07-04T13:45:02.982Z,28.1
2018-07-04T14:00:02.289Z,29.1
2018-07-04T14:15:02.593Z,28.9
2018-07-04T14:30:02.958Z,28.2
2018-07-04T14:45:02.279Z,28.3
2018-07-04T15:00:02.592Z,27.2
2018-07-04T15:15:02.870Z,27
2018-07-04T15:30:02.261Z,26.6
2018-07-04T15:45:02.572Z,25.7
2018-07-04T16:00:02.878Z,25.3
2018-07-04T16:15:03.207Z,25
2018-07-04T16:30:02.637Z,25.4
2018-07-04T16:45:02.974Z,25.3
2018-07-04T17:00:02.269Z,25.2
2018-07-04T17:15:02.563Z,24.5
2018-07-04T17:30:02.956Z,24.2
2018-07-04T17:45:02.349Z,24.2
2018-07-04T18:00:02.669Z,24.1
2018-07-04T18:15:02.967Z,23.7
2018-07-04T18:30:02.385Z,23.4
2018-07-04T18:45:02.681Z,22.8
2018-07-04T19:00:02.980Z,22.6
2018-07-04T19:15:02.371Z,21.4
2018-07-04T19:30:02.739Z,20.8
2018-07-04T19:45:03.085Z,20.4
2018-07-04T20:00:02.462Z,19.5
2018-07-04T20:15:02.762Z,19.4
2018-07-04T20:30:03.204Z,19
2018-07-04T20:45:02.483Z,18.6
2018-07-04T21:00:02.845Z,18.5
2018-07-04T21:15:03.165Z,18.1
2018-07-04T21:30:02.562Z,18
2018-07-04T21:45:02.909Z,17.7
2018-07-04T22:00:03.234Z,17.6
2018-07-04T22:15:02.545Z,17.2
2018-07-04T22:30:03.010Z,17.1
2018-07-04T22:45:02.374Z,16.9
2018-07-04T23:00:02.672Z,16.7
2018-07-04T23:15:03.028Z,16.6
2018-07-04T23:30:02.451Z,16.4
2018-07-04T23:45:02.778Z,16.2
